Time;durP1;ratioP1;P1;durP2;ratioP2;P2;SDS_P1;SDS_P2;PMS_P1;PMS_P2;Temp;Humidity;BMP_temperature;BMP_pressure;BME280_temperature;BME280_humidity;BME280_pressure;Samples;Min_cycle;Max_cycle;Signal;HPM_P1;HPM_P2
2021/04/25 00:00:11;;;;;;;5.15;4.75;;;;;;;;;;5027322;28;20502;-52
2021/04/25 00:02:37;;;;;;;5.90;5.47;;;;;;;;;;5028425;28;20569;-50
2021/04/25 00:05:04;;;;;;;4.32;4.15;;;;;;;;;;5030560;28;20425;-52
2021/04/25 00:07:31;;;;;;;5.40;5.00;;;;;;;;;;5027654;28;20037;-51
2021/04/25 00:09:57;;;;;;;5.75;5.35;;;;;;;;;;5026908;28;20519;-52
2021/04/25 00:12:24;;;;;;;6.72;6.20;;;;;;;;;;5028424;28;20064;-48
2021/04/25 00:14:50;;;;;;;6.28;6.07;;;;;;;;;;5028493;28;20136;-48
2021/04/25 00:17:17;;;;;;;7.28;6.95;;;;;;;;;;5027299;28;20033;-50
2021/04/25 00:19:43;;;;;;;6.28;6.05;;;;;;;;;;5028524;28;20068;-49
2021/04/25 00:22:09;;;;;;;5.80;5.60;;;;;;;;;;5026435;28;20037;-49
2021/04/25 00:24:36;;;;;;;6.78;6.47;;;;;;;;;;5030074;28;20666;-49
2021/04/25 00:27:02;;;;;;;7.65;7.20;;;;;;;;;;5025248;28;20045;-50
2021/04/25 00:29:28;;;;;;;7.32;6.65;;;;;;;;;;5028802;28;20148;-50
2021/04/25 00:31:55;;;;;;;7.75;7.38;;;;;;;;;;5027479;28;20119;-46
2021/04/25 00:34:21;;;;;;;7.68;7.43;;;;;;;;;;5028008;28;20049;-51
2021/04/25 00:36:48;;;;;;;8.75;8.13;;;;;;;;;;5028316;28;20049;-49
2021/04/25 00:39:14;;;;;;;13.52;13.05;;;;;;;;;;5026644;28;20544;-52
2021/04/25 00:41:40;;;;;;;12.88;12.50;;;;;;;;;;5024491;28;20037;-50
2021/04/25 00:44:10;;;;;;;18.58;17.90;;;;;;;;;;5020412;28;20040;-50
2021/04/25 00:46:36;;;;;;;21.33;20.38;;;;;;;;;;5019742;28;20081;-51
2021/04/25 00:49:03;;;;;;;18.77;17.85;;;;;;;;;;5028505;28;20044;-51
2021/04/25 00:51:29;;;;;;;18.42;17.63;;;;;;;;;;5027026;28;20041;-51
2021/04/25 00:53:56;;;;;;;18.75;18.02;;;;;;;;;;5028282;28;20183;-52
2021/04/25 00:56:23;;;;;;;17.13;16.35;;;;;;;;;;5021095;28;20052;-50
2021/04/25 00:58:50;;;;;;;18.95;18.00;;;;;;;;;;5019774;28;20041;-50
2021/04/25 01:01:17;;;;;;;16.60;15.90;;;;;;;;;;5018740;28;20068;-50
2021/04/25 01:03:43;;;;;;;16.88;16.38;;;;;;;;;;5027463;28;20042;-51
2021/04/25 01:06:10;;;;;;;17.90;17.30;;;;;;;;;;5027308;28;20500;-48
2021/04/25 01:08:36;;;;;;;13.35;13.15;;;;;;;;;;5029590;28;20069;-50
2021/04/25 01:11:03;;;;;;;18.17;17.55;;;;;;;;;;5026183;28;20494;-51
2021/04/25 01:13:29;;;;;;;20.08;19.30;;;;;;;;;;5019298;28;20044;-48
2021/04/25 01:15:55;;;;;;;16.98;16.55;;;;;;;;;;5022713;28;20077;-47
2021/04/25 01:18:22;;;;;;;17.17;16.27;;;;;;;;;;5026615;28;20048;-48
2021/04/25 01:20:48;;;;;;;16.08;15.55;;;;;;;;;;5025723;28;20129;-49
2021/04/25 01:23:14;;;;;;;19.33;18.65;;;;;;;;;;5027421;28;20053;-48
2021/04/25 01:25:41;;;;;;;20.73;19.92;;;;;;;;;;5011595;28;20092;-48
2021/04/25 01:28:08;;;;;;;21.83;21.05;;;;;;;;;;5028249;28;20052;-46
2021/04/25 01:30:35;;;;;;;21.88;20.98;;;;;;;;;;5017514;28;20137;-48
2021/04/25 01:33:01;;;;;;;21.55;20.70;;;;;;;;;;5026481;28;20084;-51
2021/04/25 01:35:28;;;;;;;22.88;21.92;;;;;;;;;;5026842;28;20049;-48
2021/04/25 01:37:55;;;;;;;21.08;20.15;;;;;;;;;;5027981;28;20137;-48
2021/04/25 01:40:22;;;;;;;19.30;18.48;;;;;;;;;;5031560;28;20128;-51
2021/04/25 01:42:48;;;;;;;21.33;20.63;;;;;;;;;;5028547;28;20030;-49
2021/04/25 01:45:18;;;;;;;22.23;21.55;;;;;;;;;;5025339;28;21117;-52
2021/04/25 01:47:49;;;;;;;20.73;20.13;;;;;;;;;;5028213;28;20077;-49
2021/04/25 01:50:16;;;;;;;20.67;19.98;;;;;;;;;;5031698;28;20045;-51
2021/04/25 01:52:42;;;;;;;20.23;19.83;;;;;;;;;;5031698;28;20041;-48
2021/04/25 01:55:09;;;;;;;20.50;19.80;;;;;;;;;;5032050;28;20129;-46
2021/04/25 01:57:36;;;;;;;21.17;20.17;;;;;;;;;;5029804;28;20132;-47
2021/04/25 02:00:05;;;;;;;19.02;18.42;;;;;;;;;;5030714;28;20051;-47
2021/04/25 02:02:31;;;;;;;22.35;21.55;;;;;;;;;;5030161;28;20056;-51
2021/04/25 02:04:58;;;;;;;20.55;19.70;;;;;;;;;;5032062;28;20057;-51
2021/04/25 02:07:24;;;;;;;20.75;19.92;;;;;;;;;;5028464;28;20029;-47
2021/04/25 02:09:51;;;;;;;21.55;20.75;;;;;;;;;;5014087;28;20471;-47
2021/04/25 02:12:17;;;;;;;20.70;19.95;;;;;;;;;;5025921;28;20038;-50
2021/04/25 02:14:44;;;;;;;21.42;20.50;;;;;;;;;;5024395;28;20030;-47
2021/04/25 02:17:11;;;;;;;21.75;20.73;;;;;;;;;;5024292;28;20053;-47
2021/04/25 02:19:38;;;;;;;20.17;19.55;;;;;;;;;;5024613;28;20056;-48
2021/04/25 02:22:05;;;;;;;22.48;21.48;;;;;;;;;;5032028;28;20068;-47
2021/04/25 02:24:31;;;;;;;24.45;23.70;;;;;;;;;;5025020;28;20445;-47
2021/04/25 02:26:58;;;;;;;22.23;21.45;;;;;;;;;;5022189;28;20041;-50
2021/04/25 02:29:24;;;;;;;24.48;23.13;;;;;;;;;;5030361;28;20103;-47
2021/04/25 02:31:50;;;;;;;22.55;21.80;;;;;;;;;;5029476;28;20053;-49
2021/04/25 02:34:17;;;;;;;23.70;22.88;;;;;;;;;;5015987;28;20056;-47
2021/04/25 02:36:43;;;;;;;23.83;23.00;;;;;;;;;;5027614;28;20037;-48
2021/04/25 02:39:09;;;;;;;24.45;23.48;;;;;;;;;;5029604;28;20034;-49
2021/04/25 02:41:36;;;;;;;24.88;23.75;;;;;;;;;;5030662;28;20025;-47
2021/04/25 02:44:03;;;;;;;24.98;23.88;;;;;;;;;;5026435;28;20045;-47
2021/04/25 02:46:29;;;;;;;23.17;22.10;;;;;;;;;;5021086;28;20041;-47
2021/04/25 02:48:55;;;;;;;24.27;23.38;;;;;;;;;;5030132;28;20449;-51
2021/04/25 02:51:22;;;;;;;22.33;21.55;;;;;;;;;;5028876;28;20053;-48
2021/04/25 02:53:48;;;;;;;22.63;21.73;;;;;;;;;;5032062;28;20046;-48
2021/04/25 02:56:14;;;;;;;22.73;21.80;;;;;;;;;;5028906;28;20500;-48
2021/04/25 02:58:41;;;;;;;23.92;22.98;;;;;;;;;;5028463;28;20041;-47
2021/04/25 03:01:07;;;;;;;22.48;21.33;;;;;;;;;;5024314;28;20115;-46
2021/04/25 03:03:33;;;;;;;25.42;24.02;;;;;;;;;;5021479;28;20049;-47
2021/04/25 03:06:00;;;;;;;25.60;24.45;;;;;;;;;;5022159;28;20038;-48
2021/04/25 03:08:26;;;;;;;23.80;23.00;;;;;;;;;;5028163;28;20045;-47
2021/04/25 03:10:52;;;;;;;24.50;23.70;;;;;;;;;;5028668;28;20125;-47
2021/04/25 03:13:19;;;;;;;22.42;21.73;;;;;;;;;;5029713;28;20069;-47
2021/04/25 03:15:45;;;;;;;22.15;21.10;;;;;;;;;;5024177;28;20048;-49
2021/04/25 03:18:11;;;;;;;24.60;23.42;;;;;;;;;;5020472;28;20050;-46
2021/04/25 03:20:38;;;;;;;21.52;20.92;;;;;;;;;;5024230;28;20041;-48
2021/04/25 03:23:04;;;;;;;24.55;23.70;;;;;;;;;;5028711;28;20037;-46
2021/04/25 03:25:30;;;;;;;23.85;23.15;;;;;;;;;;5029574;28;20036;-46
2021/04/25 03:27:57;;;;;;;24.40;23.58;;;;;;;;;;5027741;28;20029;-47
2021/04/25 03:30:24;;;;;;;23.13;21.92;;;;;;;;;;5029748;28;20041;-49
2021/04/25 03:32:50;;;;;;;23.40;22.35;;;;;;;;;;5029883;28;20041;-47
2021/04/25 03:35:16;;;;;;;22.02;21.42;;;;;;;;;;5014983;28;20038;-50
2021/04/25 03:37:43;;;;;;;23.88;23.05;;;;;;;;;;5027926;28;20484;-48
2021/04/25 03:40:10;;;;;;;21.88;21.10;;;;;;;;;;5030269;28;20045;-46
2021/04/25 03:42:37;;;;;;;22.05;21.30;;;;;;;;;;5026611;28;20152;-49
2021/04/25 03:45:05;;;;;;;22.75;21.98;;;;;;;;;;5030306;28;20120;-46
2021/04/25 03:47:31;;;;;;;23.23;22.17;;;;;;;;;;5021613;28;20057;-48
2021/04/25 03:49:57;;;;;;;23.55;22.75;;;;;;;;;;5021001;28;20038;-48
2021/04/25 03:52:23;;;;;;;24.98;23.85;;;;;;;;;;5027370;28;20095;-47
2021/04/25 03:54:50;;;;;;;23.00;22.38;;;;;;;;;;5030604;28;20045;-47
2021/04/25 03:57:16;;;;;;;25.90;24.90;;;;;;;;;;5029846;28;20045;-46
2021/04/25 03:59:42;;;;;;;23.08;22.42;;;;;;;;;;5030097;28;20068;-47
2021/04/25 04:02:08;;;;;;;23.38;22.45;;;;;;;;;;5021587;28;20036;-46
2021/04/25 04:04:35;;;;;;;25.00;24.27;;;;;;;;;;5028863;28;20045;-46
2021/04/25 04:07:01;;;;;;;22.80;22.20;;;;;;;;;;5028715;28;20120;-46
2021/04/25 04:09:27;;;;;;;24.13;23.05;;;;;;;;;;5022450;28;20049;-48
2021/04/25 04:11:53;;;;;;;22.33;21.50;;;;;;;;;;5017737;28;20073;-46
2021/04/25 04:14:19;;;;;;;25.60;24.70;;;;;;;;;;5030062;28;20761;-47
2021/04/25 04:16:46;;;;;;;25.20;24.38;;;;;;;;;;5025006;28;20052;-48
2021/04/25 04:19:12;;;;;;;23.83;23.08;;;;;;;;;;5021996;28;20045;-46
2021/04/25 04:21:38;;;;;;;22.48;21.73;;;;;;;;;;5028938;28;20076;-46
2021/04/25 04:24:05;;;;;;;25.02;24.02;;;;;;;;;;5027587;28;20676;-47
2021/04/25 04:26:31;;;;;;;23.13;22.42;;;;;;;;;;5027554;28;20103;-47
2021/04/25 04:28:58;;;;;;;24.25;23.58;;;;;;;;;;5028831;28;20048;-46
2021/04/25 04:31:24;;;;;;;22.88;22.08;;;;;;;;;;5012514;28;20120;-48
2021/04/25 04:33:50;;;;;;;21.33;20.75;;;;;;;;;;5026955;28;20052;-46
2021/04/25 04:36:17;;;;;;;25.45;24.55;;;;;;;;;;5019426;28;20630;-50
2021/04/25 04:38:44;;;;;;;23.33;22.48;;;;;;;;;;5014920;28;20125;-47
2021/04/25 04:41:10;;;;;;;24.27;23.33;;;;;;;;;;5024721;28;20073;-45
2021/04/25 04:43:36;;;;;;;23.67;22.90;;;;;;;;;;5028326;28;20450;-46
2021/04/25 04:46:02;;;;;;;22.73;21.85;;;;;;;;;;5029416;28;20049;-48
2021/04/25 04:48:29;;;;;;;22.95;22.25;;;;;;;;;;5021341;28;20122;-47
2021/04/25 04:50:55;;;;;;;23.40;22.50;;;;;;;;;;5027202;28;20552;-47
2021/04/25 04:53:22;;;;;;;23.77;22.98;;;;;;;;;;5025483;28;20095;-48
2021/04/25 04:55:48;;;;;;;24.48;23.58;;;;;;;;;;5017214;28;20080;-47
2021/04/25 04:58:14;;;;;;;27.00;26.10;;;;;;;;;;5028900;28;20506;-46
2021/04/25 05:00:40;;;;;;;23.40;22.60;;;;;;;;;;5025989;28;20050;-46
2021/04/25 05:03:06;;;;;;;23.85;23.15;;;;;;;;;;5028060;28;20034;-46
2021/04/25 05:05:33;;;;;;;24.80;24.10;;;;;;;;;;5027279;28;20088;-48
2021/04/25 05:07:59;;;;;;;25.02;24.23;;;;;;;;;;5027045;28;20034;-46
2021/04/25 05:10:26;;;;;;;23.83;23.08;;;;;;;;;;5027596;28;20504;-51
2021/04/25 05:12:54;;;;;;;23.08;22.38;;;;;;;;;;5027692;28;20041;-47
2021/04/25 05:15:20;;;;;;;27.27;26.35;;;;;;;;;;5033687;28;20033;-47
2021/04/25 05:17:47;;;;;;;22.52;21.98;;;;;;;;;;5028442;28;20034;-47
2021/04/25 05:20:13;;;;;;;24.65;23.50;;;;;;;;;;5022564;28;20064;-47
2021/04/25 05:22:40;;;;;;;22.42;21.83;;;;;;;;;;5032678;28;20393;-49
2021/04/25 05:25:06;;;;;;;23.92;23.08;;;;;;;;;;5028689;28;20033;-51
2021/04/25 05:27:33;;;;;;;25.80;24.77;;;;;;;;;;5032621;28;20072;-52
2021/04/25 05:29:59;;;;;;;25.67;24.88;;;;;;;;;;5031380;28;20056;-51
2021/04/25 05:32:25;;;;;;;23.35;22.65;;;;;;;;;;5026969;28;20037;-50
2021/04/25 05:34:52;;;;;;;25.17;24.17;;;;;;;;;;5027147;28;20041;-52
2021/04/25 05:37:18;;;;;;;22.92;22.15;;;;;;;;;;5030152;28;20437;-48
2021/04/25 05:39:44;;;;;;;24.77;24.08;;;;;;;;;;5032888;28;20041;-49
2021/04/25 05:42:10;;;;;;;22.55;21.95;;;;;;;;;;5031729;28;20137;-51
2021/04/25 05:44:36;;;;;;;25.85;24.88;;;;;;;;;;5032045;28;20041;-51
2021/04/25 05:47:03;;;;;;;26.13;25.13;;;;;;;;;;5031511;28;20079;-52
2021/04/25 05:49:30;;;;;;;26.23;25.23;;;;;;;;;;5026946;28;20040;-52
2021/04/25 05:51:56;;;;;;;20.70;20.10;;;;;;;;;;5030642;28;20453;-51
2021/04/25 05:54:23;;;;;;;21.90;21.40;;;;;;;;;;5024636;28;20420;-50
2021/04/25 05:56:49;;;;;;;19.85;19.05;;;;;;;;;;5021535;28;20033;-50
2021/04/25 05:59:15;;;;;;;19.80;19.10;;;;;;;;;;5019486;28;20038;-52
2021/04/25 06:01:42;;;;;;;21.58;20.88;;;;;;;;;;5028847;28;20041;-51
2021/04/25 06:04:08;;;;;;;19.20;18.70;;;;;;;;;;5031098;28;20045;-51
2021/04/25 06:06:34;;;;;;;21.85;21.17;;;;;;;;;;5031372;28;20042;-51
2021/04/25 06:09:01;;;;;;;19.83;19.23;;;;;;;;;;5031268;28;20033;-50
2021/04/25 06:11:27;;;;;;;21.70;20.85;;;;;;;;;;5016962;28;20720;-45
2021/04/25 06:13:53;;;;;;;17.23;16.67;;;;;;;;;;5025447;28;20048;-45
2021/04/25 06:16:20;;;;;;;14.82;14.43;;;;;;;;;;5031344;28;20041;-47
2021/04/25 06:18:46;;;;;;;12.30;12.00;;;;;;;;;;5030294;28;20065;-44
2021/04/25 06:21:12;;;;;;;6.40;6.22;;;;;;;;;;5028819;28;20056;-43
2021/04/25 06:23:39;;;;;;;5.03;4.93;;;;;;;;;;5030750;28;20041;-47
2021/04/25 06:26:05;;;;;;;5.20;5.10;;;;;;;;;;5027915;28;20107;-44
2021/04/25 06:28:32;;;;;;;4.30;4.00;;;;;;;;;;5030587;28;20041;-46
2021/04/25 06:30:58;;;;;;;4.03;3.92;;;;;;;;;;5031524;28;20796;-44
2021/04/25 06:33:24;;;;;;;3.80;3.50;;;;;;;;;;5030005;28;20183;-45
2021/04/25 06:35:51;;;;;;;3.88;3.53;;;;;;;;;;5023927;28;20071;-46
2021/04/25 06:38:17;;;;;;;5.85;5.35;;;;;;;;;;5028578;28;20533;-44
2021/04/25 06:40:43;;;;;;;4.88;4.65;;;;;;;;;;5030850;28;20038;-45
2021/04/25 06:43:09;;;;;;;5.32;4.93;;;;;;;;;;5022193;28;20061;-46
2021/04/25 06:45:36;;;;;;;5.40;5.20;;;;;;;;;;5021653;28;20058;-43
2021/04/25 06:48:02;;;;;;;6.13;5.90;;;;;;;;;;5028545;28;20129;-44
2021/04/25 06:50:29;;;;;;;5.55;5.35;;;;;;;;;;5026953;28;20123;-47
2021/04/25 06:52:55;;;;;;;5.72;5.45;;;;;;;;;;5017515;28;20041;-44
2021/04/25 06:55:22;;;;;;;4.10;4.00;;;;;;;;;;5020223;28;20054;-48
2021/04/25 06:57:49;;;;;;;4.90;4.43;;;;;;;;;;5024348;28;20046;-45
2021/04/25 07:00:16;;;;;;;3.97;3.75;;;;;;;;;;5030663;28;20660;-45
2021/04/25 07:02:42;;;;;;;3.85;3.65;;;;;;;;;;5025228;28;20069;-47
2021/04/25 07:05:08;;;;;;;4.72;4.30;;;;;;;;;;5017758;28;20126;-46
2021/04/25 07:07:35;;;;;;;3.72;3.63;;;;;;;;;;5023948;28;20134;-46
2021/04/25 07:10:03;;;;;;;2.78;2.58;;;;;;;;;;5023094;28;20115;-48
2021/04/25 07:12:29;;;;;;;3.67;3.58;;;;;;;;;;5031831;28;20037;-44
2021/04/25 07:14:57;;;;;;;3.38;3.08;;;;;;;;;;5030183;28;20053;-44
2021/04/25 07:17:23;;;;;;;3.28;3.17;;;;;;;;;;5029775;28;20125;-44
2021/04/25 07:19:50;;;;;;;3.17;3.00;;;;;;;;;;5021212;28;20066;-46
2021/04/25 07:22:16;;;;;;;3.22;2.97;;;;;;;;;;5022568;28;20087;-50
2021/04/25 07:24:43;;;;;;;2.78;2.60;;;;;;;;;;5016231;28;20034;-45
2021/04/25 07:27:10;;;;;;;3.20;2.67;;;;;;;;;;5030154;28;20041;-46
2021/04/25 07:29:36;;;;;;;2.13;2.03;;;;;;;;;;5031010;28;20037;-45
2021/04/25 07:32:06;;;;;;;2.75;2.65;;;;;;;;;;5031377;28;20045;-47
2021/04/25 07:34:33;;;;;;;4.00;3.70;;;;;;;;;;5025314;28;20099;-46
2021/04/25 07:36:59;;;;;;;2.55;2.45;;;;;;;;;;5011641;28;20052;-47
2021/04/25 07:39:25;;;;;;;2.95;2.85;;;;;;;;;;5023518;28;20101;-45
2021/04/25 07:41:51;;;;;;;2.08;1.98;;;;;;;;;;5027314;28;20041;-48
2021/04/25 07:44:22;;;;;;;2.88;2.65;;;;;;;;;;5015222;28;20034;-46
2021/04/25 07:46:48;;;;;;;2.28;2.17;;;;;;;;;;5024673;28;20103;-47
2021/04/25 07:49:14;;;;;;;2.45;2.03;;;;;;;;;;5018404;28;20479;-47
2021/04/25 07:51:41;;;;;;;3.00;2.00;;;;;;;;;;5023651;28;20052;-45
2021/04/25 07:54:07;;;;;;;3.42;1.60;;;;;;;;;;5027864;28;20052;-47
2021/04/25 07:56:33;;;;;;;3.53;2.65;;;;;;;;;;5014668;28;20050;-48
2021/04/25 07:59:00;;;;;;;2.42;1.75;;;;;;;;;;5022432;28;20508;-49
2021/04/25 08:01:27;;;;;;;1.77;1.67;;;;;;;;;;5015042;28;20037;-46
2021/04/25 08:03:54;;;;;;;1.25;1.25;;;;;;;;;;5029441;28;20719;-49
2021/04/25 08:06:20;;;;;;;1.52;1.48;;;;;;;;;;5027841;28;23604;-48
2021/04/25 08:08:46;;;;;;;2.70;1.23;;;;;;;;;;5031179;28;20049;-51
2021/04/25 08:11:13;;;;;;;1.10;1.10;;;;;;;;;;5022765;28;20041;-49
2021/04/25 08:13:42;;;;;;;1.83;1.20;;;;;;;;;;5016201;28;20041;-49
2021/04/25 08:16:08;;;;;;;1.00;1.00;;;;;;;;;;5018722;28;20053;-49
2021/04/25 08:18:34;;;;;;;3.10;1.02;;;;;;;;;;5021397;28;20052;-51
2021/04/25 08:21:01;;;;;;;1.95;1.10;;;;;;;;;;5029085;28;20042;-52
2021/04/25 08:23:27;;;;;;;4.40;3.28;;;;;;;;;;5026337;28;20113;-49
2021/04/25 08:25:53;;;;;;;1.67;1.58;;;;;;;;;;5028678;28;20038;-52
2021/04/25 08:28:21;;;;;;;1.20;1.10;;;;;;;;;;5017917;28;20038;-52
2021/04/25 08:30:47;;;;;;;4.55;0.90;;;;;;;;;;5023411;28;20123;-51
2021/04/25 08:33:13;;;;;;;3.35;0.90;;;;;;;;;;5029665;28;20038;-49
2021/04/25 08:35:40;;;;;;;1.00;1.00;;;;;;;;;;5027913;28;20029;-52
2021/04/25 08:38:06;;;;;;;1.30;0.90;;;;;;;;;;5027496;28;20113;-52
2021/04/25 08:40:32;;;;;;;1.13;1.02;;;;;;;;;;5025061;28;20052;-53
2021/04/25 08:42:59;;;;;;;1.35;1.35;;;;;;;;;;5028203;28;20045;-50
2021/04/25 08:45:26;;;;;;;1.00;1.00;;;;;;;;;;5028428;28;20490;-49
2021/04/25 08:47:59;;;;;;;1.70;1.40;;;;;;;;;;5028572;28;20120;-53
2021/04/25 08:50:28;;;;;;;1.40;1.10;;;;;;;;;;5028142;28;20120;-53
2021/04/25 08:52:55;;;;;;;2.10;0.90;;;;;;;;;;5029891;28;20056;-52
2021/04/25 08:55:22;;;;;;;0.90;0.90;;;;;;;;;;5026127;28;20045;-52
2021/04/25 08:57:48;;;;;;;1.35;1.23;;;;;;;;;;5029173;28;20363;-51
2021/04/25 09:00:15;;;;;;;2.00;1.00;;;;;;;;;;5027719;28;20049;-51
2021/04/25 09:02:41;;;;;;;1.10;1.00;;;;;;;;;;5024999;28;20072;-53
2021/04/25 09:05:08;;;;;;;1.77;1.00;;;;;;;;;;5030766;28;20482;-52
2021/04/25 09:07:35;;;;;;;4.20;1.00;;;;;;;;;;5024515;28;20038;-52
2021/04/25 09:10:05;;;;;;;1.83;0.90;;;;;;;;;;5016053;28;20045;-51
2021/04/25 09:12:32;;;;;;;1.40;0.90;;;;;;;;;;5018138;28;20088;-50
2021/04/25 09:14:59;;;;;;;0.80;0.80;;;;;;;;;;5029505;28;20041;-49
2021/04/25 09:17:27;;;;;;;0.90;0.90;;;;;;;;;;5029021;28;20053;-53
2021/04/25 09:19:55;;;;;;;1.75;1.70;;;;;;;;;;5019568;28;20046;-53
2021/04/25 09:22:22;;;;;;;0.95;0.90;;;;;;;;;;5020123;28;20026;-47
2021/04/25 09:24:49;;;;;;;1.00;1.00;;;;;;;;;;5025703;28;20061;-51
2021/04/25 09:27:26;;;;;;;0.95;0.95;;;;;;;;;;5032132;28;20037;-53
2021/04/25 09:29:58;;;;;;;1.15;1.13;;;;;;;;;;5012511;28;20047;-50
2021/04/25 09:32:26;;;;;;;2.95;1.00;;;;;;;;;;5027779;28;20068;-49
2021/04/25 09:35:12;;;;;;;1.33;1.00;;;;;;;;;;5031241;28;20038;-51
2021/04/25 09:37:41;;;;;;;1.48;1.38;;;;;;;;;;5028637;28;20059;-52
2021/04/25 09:40:09;;;;;;;1.50;1.40;;;;;;;;;;5024841;28;20038;-49
2021/04/25 09:42:54;;;;;;;1.35;1.08;;;;;;;;;;5017590;28;20034;-47
2021/04/25 09:45:21;;;;;;;1.58;1.10;;;;;;;;;;5029402;28;20425;-50
2021/04/25 09:47:48;;;;;;;2.13;0.90;;;;;;;;;;5029020;28;20056;-53
2021/04/25 09:50:17;;;;;;;2.90;0.98;;;;;;;;;;5028208;28;20034;-50
2021/04/25 09:52:48;;;;;;;3.15;1.33;;;;;;;;;;5019483;28;20065;-50
2021/04/25 09:55:25;;;;;;;1.33;0.90;;;;;;;;;;5027897;28;20450;-53
2021/04/25 09:57:53;;;;;;;1.58;1.40;;;;;;;;;;5020004;28;20046;-53
2021/04/25 10:00:20;;;;;;;1.55;1.33;;;;;;;;;;5022768;28;20146;-53
2021/04/25 10:03:18;;;;;;;0.90;0.90;;;;;;;;;;5020224;28;20120;-53
2021/04/25 10:06:00;;;;;;;1.58;1.48;;;;;;;;;;5029298;28;20119;-45
2021/04/25 10:08:37;;;;;;;0.93;0.80;;;;;;;;;;5027019;28;20536;-44
2021/04/25 10:11:06;;;;;;;1.40;1.10;;;;;;;;;;5028255;28;20034;-44
2021/04/25 10:13:35;;;;;;;1.63;1.52;;;;;;;;;;5030421;28;20115;-45
2021/04/25 10:16:02;;;;;;;1.95;0.80;;;;;;;;;;5027454;28;20135;-46
2021/04/25 10:18:28;;;;;;;2.25;0.90;;;;;;;;;;5024297;28;20390;-45
2021/04/25 10:20:56;;;;;;;0.95;0.88;;;;;;;;;;5029640;28;20068;-45
2021/04/25 10:23:23;;;;;;;1.10;1.10;;;;;;;;;;5028184;28;20064;-45
2021/04/25 10:25:50;;;;;;;0.90;0.90;;;;;;;;;;5018459;28;20042;-45
2021/04/25 10:28:18;;;;;;;1.55;1.00;;;;;;;;;;5026107;28;20536;-45
2021/04/25 10:30:45;;;;;;;1.10;0.90;;;;;;;;;;5037970;28;20044;-44
2021/04/25 10:33:11;;;;;;;1.00;0.90;;;;;;;;;;5027703;28;20029;-45
2021/04/25 10:35:38;;;;;;;1.35;1.20;;;;;;;;;;5031729;28;20464;-47
2021/04/25 10:38:05;;;;;;;2.30;0.90;;;;;;;;;;5030137;28;20048;-44
2021/04/25 10:40:33;;;;;;;1.00;1.00;;;;;;;;;;5026231;28;20477;-46
2021/04/25 10:43:10;;;;;;;1.60;0.90;;;;;;;;;;5014002;28;20095;-45
2021/04/25 10:45:56;;;;;;;1.02;0.90;;;;;;;;;;5030936;28;20042;-46
2021/04/25 10:48:25;;;;;;;1.20;1.13;;;;;;;;;;5031081;28;20037;-47
2021/04/25 10:51:13;;;;;;;1.02;0.90;;;;;;;;;;5019280;28;20053;-46
2021/04/25 10:53:43;;;;;;;1.90;0.80;;;;;;;;;;5024420;28;20387;-46
2021/04/25 10:56:14;;;;;;;1.10;0.98;;;;;;;;;;5030035;28;20485;-45
2021/04/25 10:58:41;;;;;;;1.45;0.90;;;;;;;;;;5031742;28;20065;-45
2021/04/25 11:01:08;;;;;;;1.10;1.10;;;;;;;;;;5030709;28;20128;-45
2021/04/25 11:03:37;;;;;;;0.80;0.80;;;;;;;;;;5030583;28;20033;-45
2021/04/25 11:06:04;;;;;;;1.42;0.90;;;;;;;;;;5018148;28;20034;-45
2021/04/25 11:08:30;;;;;;;1.55;0.82;;;;;;;;;;5025066;28;20042;-44
2021/04/25 11:10:57;;;;;;;0.80;0.80;;;;;;;;;;5029354;28;20397;-45
2021/04/25 11:13:33;;;;;;;1.83;0.80;;;;;;;;;;5024052;28;20100;-44
2021/04/25 11:16:02;;;;;;;1.33;1.00;;;;;;;;;;5019871;28;20041;-45
2021/04/25 11:18:55;;;;;;;1.10;1.00;;;;;;;;;;5016803;28;20096;-44
2021/04/25 11:23:54;;;;;;;3.17;1.17;;;;;;;;;;5017869;28;20061;-45
2021/04/25 11:26:40;;;;;;;2.47;0.80;;;;;;;;;;5025833;28;20038;-44
2021/04/25 11:29:06;;;;;;;1.70;0.80;;;;;;;;;;5027431;28;20041;-46
2021/04/25 11:31:45;;;;;;;0.70;0.70;;;;;;;;;;5031072;28;20083;-45
2021/04/25 11:34:33;;;;;;;0.70;0.70;;;;;;;;;;5019407;28;20049;-46
2021/04/25 11:37:18;;;;;;;0.80;0.80;;;;;;;;;;5025840;28;20080;-45
2021/04/25 11:39:45;;;;;;;2.53;0.80;;;;;;;;;;5022077;28;20107;-45
2021/04/25 11:42:13;;;;;;;0.88;0.80;;;;;;;;;;5029596;28;20099;-46
2021/04/25 11:44:40;;;;;;;0.80;0.80;;;;;;;;;;5029500;28;20060;-47
2021/04/25 11:47:08;;;;;;;0.85;0.80;;;;;;;;;;5013244;28;20072;-45
2021/04/25 11:49:35;;;;;;;0.98;0.80;;;;;;;;;;5022766;28;20034;-45
2021/04/25 11:52:10;;;;;;;0.73;0.70;;;;;;;;;;5019777;28;20049;-45
2021/04/25 11:54:37;;;;;;;3.42;0.70;;;;;;;;;;5016522;28;20505;-44
2021/04/25 11:57:06;;;;;;;1.00;0.90;;;;;;;;;;5023759;28;20060;-46
2021/04/25 11:59:32;;;;;;;0.70;0.70;;;;;;;;;;5014847;28;20064;-44
2021/04/25 12:02:25;;;;;;;0.70;0.70;;;;;;;;;;5020233;28;20045;-46
2021/04/25 12:04:53;;;;;;;0.80;0.80;;;;;;;;;;5023983;28;20041;-49
2021/04/25 12:07:32;;;;;;;0.90;0.90;;;;;;;;;;5012867;28;20030;-48
2021/04/25 12:09:59;;;;;;;0.70;0.70;;;;;;;;;;5029364;28;20056;-48
2021/04/25 12:12:26;;;;;;;0.70;0.70;;;;;;;;;;5017443;28;20033;-49
2021/04/25 12:15:04;;;;;;;0.70;0.70;;;;;;;;;;5030306;28;20127;-48
2021/04/25 12:17:31;;;;;;;1.10;0.70;;;;;;;;;;5024939;28;20481;-48
2021/04/25 12:20:01;;;;;;;2.25;0.70;;;;;;;;;;5016597;28;20046;-45
2021/04/25 12:22:28;;;;;;;0.60;0.60;;;;;;;;;;5028902;28;20037;-48
2021/04/25 12:24:58;;;;;;;0.73;0.73;;;;;;;;;;5028347;28;20037;-47
2021/04/25 12:27:25;;;;;;;0.70;0.70;;;;;;;;;;5017620;28;20549;-45
2021/04/25 12:29:51;;;;;;;0.70;0.70;;;;;;;;;;5023548;28;20426;-47
2021/04/25 12:32:19;;;;;;;2.00;0.70;;;;;;;;;;5017151;28;20041;-49
2021/04/25 12:34:55;;;;;;;0.70;0.70;;;;;;;;;;5018143;28;20077;-50
2021/04/25 12:37:42;;;;;;;0.70;0.70;;;;;;;;;;5024063;28;20037;-49
2021/04/25 12:40:26;;;;;;;2.15;0.70;;;;;;;;;;5021218;28;20133;-47
2021/04/25 12:43:09;;;;;;;0.73;0.70;;;;;;;;;;5029604;28;20038;-48
2021/04/25 12:45:36;;;;;;;0.68;0.68;;;;;;;;;;5025590;28;20046;-46
2021/04/25 12:48:21;;;;;;;0.70;0.70;;;;;;;;;;5014477;28;20041;-45
2021/04/25 12:51:02;;;;;;;0.70;0.70;;;;;;;;;;5029663;28;20115;-46
2021/04/25 12:53:29;;;;;;;0.90;0.70;;;;;;;;;;5026642;28;20034;-47
2021/04/25 12:55:56;;;;;;;1.10;0.68;;;;;;;;;;5019195;28;20045;-48
2021/04/25 12:58:22;;;;;;;0.70;0.70;;;;;;;;;;5022411;28;20073;-45
2021/04/25 13:00:49;;;;;;;4.55;0.70;;;;;;;;;;5017468;28;20061;-49
2021/04/25 13:03:35;;;;;;;8.50;0.77;;;;;;;;;;5029264;28;20057;-49
2021/04/25 13:06:02;;;;;;;0.90;0.90;;;;;;;;;;5027612;28;20034;-47
2021/04/25 13:08:29;;;;;;;1.85;0.70;;;;;;;;;;5027055;28;20087;-48
2021/04/25 13:10:55;;;;;;;1.77;0.73;;;;;;;;;;5024737;28;20037;-48
2021/04/25 13:13:22;;;;;;;0.70;0.70;;;;;;;;;;5021777;28;20670;-46
2021/04/25 13:15:48;;;;;;;1.30;0.70;;;;;;;;;;5029602;28;20065;-46
2021/04/25 13:18:15;;;;;;;0.90;0.90;;;;;;;;;;5026590;28;20649;-49
2021/04/25 13:20:41;;;;;;;4.43;1.95;;;;;;;;;;5026691;28;20041;-46
2021/04/25 13:23:09;;;;;;;1.58;0.80;;;;;;;;;;5017773;28;20042;-48
2021/04/25 13:25:42;;;;;;;1.13;0.80;;;;;;;;;;5021075;28;20060;-46
2021/04/25 13:28:10;;;;;;;1.17;1.00;;;;;;;;;;5022963;28;20072;-49
2021/04/25 13:30:41;;;;;;;0.80;0.80;;;;;;;;;;5028317;28;20125;-46
2021/04/25 13:33:08;;;;;;;1.98;0.80;;;;;;;;;;5027910;28;20037;-47
2021/04/25 13:35:35;;;;;;;1.00;0.70;;;;;;;;;;5016083;28;20041;-48
2021/04/25 13:38:01;;;;;;;0.80;0.80;;;;;;;;;;5026162;28;20057;-48
2021/04/25 13:40:29;;;;;;;0.85;0.80;;;;;;;;;;5020337;28;20054;-49
2021/04/25 13:42:56;;;;;;;2.28;0.80;;;;;;;;;;5027368;28;20038;-49
2021/04/25 13:45:22;;;;;;;1.27;0.80;;;;;;;;;;5030443;28;20370;-45
2021/04/25 13:47:48;;;;;;;2.00;0.90;;;;;;;;;;5032647;28;20073;-48
2021/04/25 13:50:14;;;;;;;0.80;0.80;;;;;;;;;;5029669;28;20481;-47
2021/04/25 13:52:41;;;;;;;1.40;1.30;;;;;;;;;;5031244;28;20037;-47
2021/04/25 13:55:08;;;;;;;3.22;0.82;;;;;;;;;;5023256;28;20157;-48
2021/04/25 13:57:34;;;;;;;1.95;0.70;;;;;;;;;;5022481;28;20441;-46
2021/04/25 14:00:01;;;;;;;0.70;0.70;;;;;;;;;;5020729;28;20042;-47
2021/04/25 14:02:28;;;;;;;2.05;0.80;;;;;;;;;;5025972;28;20042;-49
2021/04/25 14:04:54;;;;;;;1.13;0.70;;;;;;;;;;5017614;28;20037;-45
2021/04/25 14:07:20;;;;;;;1.10;0.73;;;;;;;;;;5020451;28;20068;-47
2021/04/25 14:09:47;;;;;;;1.10;0.70;;;;;;;;;;5023857;28;20038;-44
2021/04/25 14:12:13;;;;;;;0.70;0.70;;;;;;;;;;5025673;28;20041;-45
2021/04/25 14:14:40;;;;;;;1.77;0.70;;;;;;;;;;5022530;28;20041;-44
2021/04/25 14:17:06;;;;;;;1.73;0.70;;;;;;;;;;5014771;28;20929;-45
2021/04/25 14:19:33;;;;;;;1.60;0.70;;;;;;;;;;5025729;28;20824;-44
2021/04/25 14:21:59;;;;;;;0.80;0.80;;;;;;;;;;5026047;28;20046;-44
2021/04/25 14:24:25;;;;;;;0.60;0.60;;;;;;;;;;5023896;28;20073;-46
2021/04/25 14:26:52;;;;;;;0.70;0.70;;;;;;;;;;5022359;28;20042;-44
2021/04/25 14:29:19;;;;;;;1.52;0.70;;;;;;;;;;5028267;28;20067;-44
2021/04/25 14:31:45;;;;;;;0.60;0.60;;;;;;;;;;5026976;28;20069;-44
2021/04/25 14:34:12;;;;;;;0.80;0.80;;;;;;;;;;5028894;28;20045;-45
2021/04/25 14:36:39;;;;;;;1.42;0.80;;;;;;;;;;5031918;28;20049;-45
2021/04/25 14:39:06;;;;;;;0.70;0.70;;;;;;;;;;5027066;28;20045;-46